sensor_id;sensor_type;location;lat;lon;timestamp;P1;durP1;ratioP1;P2;durP2;ratioP2
10191;SDS011;17580;50.850;4.504;2022-12-07T00:01:25;8.00;;;6.43;;
10191;SDS011;17580;50.850;4.504;2022-12-07T00:03:55;6.40;;;5.80;;
10191;SDS011;17580;50.850;4.504;2022-12-07T00:06:29;7.47;;;5.87;;
10191;SDS011;17580;50.850;4.504;2022-12-07T00:08:56;7.10;;;6.17;;
10191;SDS011;17580;50.850;4.504;2022-12-07T00:11:23;8.40;;;7.50;;
10191;SDS011;17580;50.850;4.504;2022-12-07T00:13:51;8.10;;;6.23;;
10191;SDS011;17580;50.850;4.504;2022-12-07T00:16:19;6.37;;;5.73;;
10191;SDS011;17580;50.850;4.504;2022-12-07T00:18:47;6.50;;;5.43;;
10191;SDS011;17580;50.850;4.504;2022-12-07T00:21:16;7.10;;;6.40;;
10191;SDS011;17580;50.850;4.504;2022-12-07T00:23:45;6.40;;;5.80;;
10191;SDS011;17580;50.850;4.504;2022-12-07T00:26:15;8.10;;;6.37;;
10191;SDS011;17580;50.850;4.504;2022-12-07T00:28:44;7.03;;;6.33;;
10191;SDS011;17580;50.850;4.504;2022-12-07T00:31:13;6.63;;;6.03;;
10191;SDS011;17580;50.850;4.504;2022-12-07T00:33:40;7.40;;;6.70;;
10191;SDS011;17580;50.850;4.504;2022-12-07T00:36:08;7.10;;;6.40;;
10191;SDS011;17580;50.850;4.504;2022-12-07T00:38:39;8.03;;;6.23;;
10191;SDS011;17580;50.850;4.504;2022-12-07T00:41:09;7.77;;;6.97;;
10191;SDS011;17580;50.850;4.504;2022-12-07T00:43:38;7.70;;;6.93;;
10191;SDS011;17580;50.850;4.504;2022-12-07T00:46:06;7.60;;;6.20;;
10191;SDS011;17580;50.850;4.504;2022-12-07T00:48:33;7.67;;;6.50;;
10191;SDS011;17580;50.850;4.504;2022-12-07T00:51:00;8.80;;;7.73;;
10191;SDS011;17580;50.850;4.504;2022-12-07T00:53:27;9.07;;;7.70;;
10191;SDS011;17580;50.850;4.504;2022-12-07T00:55:56;6.87;;;6.17;;
10191;SDS011;17580;50.850;4.504;2022-12-07T00:58:23;7.53;;;6.80;;
10191;SDS011;17580;50.850;4.504;2022-12-07T01:00:50;6.60;;;5.80;;
10191;SDS011;17580;50.850;4.504;2022-12-07T01:03:17;7.93;;;6.33;;
10191;SDS011;17580;50.850;4.504;2022-12-07T01:05:51;6.93;;;6.30;;
10191;SDS011;17580;50.850;4.504;2022-12-07T01:08:20;7.90;;;6.57;;
10191;SDS011;17580;50.850;4.504;2022-12-07T01:10:48;6.93;;;6.33;;
10191;SDS011;17580;50.850;4.504;2022-12-07T01:13:16;8.60;;;6.73;;
10191;SDS011;17580;50.850;4.504;2022-12-07T01:15:43;9.70;;;8.50;;
10191;SDS011;17580;50.850;4.504;2022-12-07T01:18:11;8.17;;;7.33;;
10191;SDS011;17580;50.850;4.504;2022-12-07T01:20:38;11.30;;;10.20;;
10191;SDS011;17580;50.850;4.504;2022-12-07T01:23:05;8.43;;;7.50;;
10191;SDS011;17580;50.850;4.504;2022-12-07T01:25:32;11.80;;;10.10;;
10191;SDS011;17580;50.850;4.504;2022-12-07T01:27:59;8.07;;;7.13;;
10191;SDS011;17580;50.850;4.504;2022-12-07T01:30:27;9.37;;;8.33;;
10191;SDS011;17580;50.850;4.504;2022-12-07T01:32:54;9.20;;;7.70;;
10191;SDS011;17580;50.850;4.504;2022-12-07T01:35:21;9.47;;;7.37;;
10191;SDS011;17580;50.850;4.504;2022-12-07T01:37:48;8.30;;;7.50;;
10191;SDS011;17580;50.850;4.504;2022-12-07T01:40:15;9.70;;;7.33;;
10191;SDS011;17580;50.850;4.504;2022-12-07T01:42:42;9.00;;;7.40;;
10191;SDS011;17580;50.850;4.504;2022-12-07T01:48:04;7.47;;;6.77;;
10191;SDS011;17580;50.850;4.504;2022-12-07T01:50:33;9.47;;;6.47;;
10191;SDS011;17580;50.850;4.504;2022-12-07T01:53:01;9.87;;;7.77;;
10191;SDS011;17580;50.850;4.504;2022-12-07T01:55:33;9.57;;;8.57;;
10191;SDS011;17580;50.850;4.504;2022-12-07T01:58:01;7.53;;;6.60;;
10191;SDS011;17580;50.850;4.504;2022-12-07T02:00:28;7.17;;;6.47;;
10191;SDS011;17580;50.850;4.504;2022-12-07T02:02:58;7.70;;;7.00;;
10191;SDS011;17580;50.850;4.504;2022-12-07T02:05:30;9.00;;;7.17;;
10191;SDS011;17580;50.850;4.504;2022-12-07T02:07:58;8.40;;;7.13;;
10191;SDS011;17580;50.850;4.504;2022-12-07T02:10:26;8.63;;;7.23;;
10191;SDS011;17580;50.850;4.504;2022-12-07T02:12:56;10.33;;;7.70;;
10191;SDS011;17580;50.850;4.504;2022-12-07T02:15:27;11.23;;;9.37;;
10191;SDS011;17580;50.850;4.504;2022-12-07T02:18:03;8.50;;;7.57;;
10191;SDS011;17580;50.850;4.504;2022-12-07T02:20:36;7.53;;;6.73;;
10191;SDS011;17580;50.850;4.504;2022-12-07T02:23:15;7.03;;;6.43;;
10191;SDS011;17580;50.850;4.504;2022-12-07T02:29:10;7.43;;;6.73;;
10191;SDS011;17580;50.850;4.504;2022-12-07T02:31:44;8.53;;;6.83;;
10191;SDS011;17580;50.850;4.504;2022-12-07T02:34:18;9.90;;;7.50;;
10191;SDS011;17580;50.850;4.504;2022-12-07T02:36:52;7.93;;;7.13;;
10191;SDS011;17580;50.850;4.504;2022-12-07T02:39:24;8.60;;;6.27;;
10191;SDS011;17580;50.850;4.504;2022-12-07T02:41:57;7.67;;;6.97;;
10191;SDS011;17580;50.850;4.504;2022-12-07T02:44:28;8.73;;;7.10;;
10191;SDS011;17580;50.850;4.504;2022-12-07T02:46:59;7.70;;;6.87;;
10191;SDS011;17580;50.850;4.504;2022-12-07T02:49:30;8.20;;;7.40;;
10191;SDS011;17580;50.850;4.504;2022-12-07T02:51:57;11.00;;;6.73;;
10191;SDS011;17580;50.850;4.504;2022-12-07T02:54:24;7.57;;;6.87;;
10191;SDS011;17580;50.850;4.504;2022-12-07T02:56:52;11.87;;;7.83;;
10191;SDS011;17580;50.850;4.504;2022-12-07T02:59:25;7.77;;;7.00;;
10191;SDS011;17580;50.850;4.504;2022-12-07T03:02:08;7.70;;;6.80;;
10191;SDS011;17580;50.850;4.504;2022-12-07T03:04:45;6.27;;;5.67;;
10191;SDS011;17580;50.850;4.504;2022-12-07T03:07:22;7.50;;;5.67;;
10191;SDS011;17580;50.850;4.504;2022-12-07T03:09:58;7.40;;;6.40;;
10191;SDS011;17580;50.850;4.504;2022-12-07T03:12:29;6.73;;;6.03;;
10191;SDS011;17580;50.850;4.504;2022-12-07T03:15:05;7.37;;;6.43;;
10191;SDS011;17580;50.850;4.504;2022-12-07T03:17:38;7.30;;;6.27;;
10191;SDS011;17580;50.850;4.504;2022-12-07T03:20:09;6.20;;;5.63;;
10191;SDS011;17580;50.850;4.504;2022-12-07T03:22:39;7.53;;;6.57;;
10191;SDS011;17580;50.850;4.504;2022-12-07T03:25:09;6.30;;;5.70;;
10191;SDS011;17580;50.850;4.504;2022-12-07T03:27:41;7.83;;;6.43;;
10191;SDS011;17580;50.850;4.504;2022-12-07T03:30:15;6.30;;;5.70;;
10191;SDS011;17580;50.850;4.504;2022-12-07T03:32:47;6.27;;;5.67;;
10191;SDS011;17580;50.850;4.504;2022-12-07T03:35:17;6.17;;;5.60;;
10191;SDS011;17580;50.850;4.504;2022-12-07T03:37:48;5.70;;;5.20;;
10191;SDS011;17580;50.850;4.504;2022-12-07T03:40:19;6.30;;;5.60;;
10191;SDS011;17580;50.850;4.504;2022-12-07T03:42:50;7.40;;;5.77;;
10191;SDS011;17580;50.850;4.504;2022-12-07T03:45:21;6.47;;;5.77;;
10191;SDS011;17580;50.850;4.504;2022-12-07T03:47:53;8.07;;;6.33;;
10191;SDS011;17580;50.850;4.504;2022-12-07T03:50:29;6.63;;;5.90;;
10191;SDS011;17580;50.850;4.504;2022-12-07T03:53:03;6.97;;;6.37;;
10191;SDS011;17580;50.850;4.504;2022-12-07T03:55:35;5.93;;;5.43;;
10191;SDS011;17580;50.850;4.504;2022-12-07T03:58:06;5.97;;;5.13;;
10191;SDS011;17580;50.850;4.504;2022-12-07T04:00:37;6.70;;;5.20;;
10191;SDS011;17580;50.850;4.504;2022-12-07T04:03:05;5.57;;;5.07;;
10191;SDS011;17580;50.850;4.504;2022-12-07T04:05:32;6.13;;;5.30;;
10191;SDS011;17580;50.850;4.504;2022-12-07T04:07:59;5.53;;;4.67;;
10191;SDS011;17580;50.850;4.504;2022-12-07T04:10:26;5.90;;;5.37;;
10191;SDS011;17580;50.850;4.504;2022-12-07T04:12:53;5.20;;;4.70;;
10191;SDS011;17580;50.850;4.504;2022-12-07T04:15:20;5.87;;;5.37;;
10191;SDS011;17580;50.850;4.504;2022-12-07T04:17:48;8.23;;;6.07;;
10191;SDS011;17580;50.850;4.504;2022-12-07T04:20:15;6.53;;;5.07;;
10191;SDS011;17580;50.850;4.504;2022-12-07T04:22:43;6.37;;;5.77;;
10191;SDS011;17580;50.850;4.504;2022-12-07T04:25:10;6.53;;;5.40;;
10191;SDS011;17580;50.850;4.504;2022-12-07T04:27:37;5.00;;;4.43;;
10191;SDS011;17580;50.850;4.504;2022-12-07T04:30:04;5.83;;;5.27;;
10191;SDS011;17580;50.850;4.504;2022-12-07T04:32:32;6.70;;;4.87;;
10191;SDS011;17580;50.850;4.504;2022-12-07T04:35:00;5.90;;;4.60;;
10191;SDS011;17580;50.850;4.504;2022-12-07T04:37:27;5.73;;;4.40;;
10191;SDS011;17580;50.850;4.504;2022-12-07T04:39:54;5.27;;;4.87;;
10191;SDS011;17580;50.850;4.504;2022-12-07T04:42:21;5.70;;;5.10;;
10191;SDS011;17580;50.850;4.504;2022-12-07T04:44:48;5.07;;;4.20;;
10191;SDS011;17580;50.850;4.504;2022-12-07T04:47:16;4.93;;;4.30;;
10191;SDS011;17580;50.850;4.504;2022-12-07T04:49:43;5.97;;;4.63;;
10191;SDS011;17580;50.850;4.504;2022-12-07T04:52:11;5.20;;;4.63;;
10191;SDS011;17580;50.850;4.504;2022-12-07T04:54:38;6.57;;;4.87;;
10191;SDS011;17580;50.850;4.504;2022-12-07T04:57:05;5.50;;;4.40;;
10191;SDS011;17580;50.850;4.504;2022-12-07T04:59:32;5.00;;;4.50;;
10191;SDS011;17580;50.850;4.504;2022-12-07T05:01:59;6.43;;;5.70;;
10191;SDS011;17580;50.850;4.504;2022-12-07T05:04:26;7.07;;;5.77;;
10191;SDS011;17580;50.850;4.504;2022-12-07T05:06:53;6.30;;;4.93;;
10191;SDS011;17580;50.850;4.504;2022-12-07T05:09:21;5.60;;;5.17;;
10191;SDS011;17580;50.850;4.504;2022-12-07T05:11:48;5.57;;;4.90;;
10191;SDS011;17580;50.850;4.504;2022-12-07T05:14:15;6.17;;;5.40;;
10191;SDS011;17580;50.850;4.504;2022-12-07T05:16:44;6.37;;;5.53;;
10191;SDS011;17580;50.850;4.504;2022-12-07T05:19:12;6.37;;;5.60;;
10191;SDS011;17580;50.850;4.504;2022-12-07T05:21:40;6.60;;;5.90;;
10191;SDS011;17580;50.850;4.504;2022-12-07T05:24:07;6.87;;;5.57;;
10191;SDS011;17580;50.850;4.504;2022-12-07T05:26:37;6.73;;;6.23;;
10191;SDS011;17580;50.850;4.504;2022-12-07T05:29:05;5.50;;;5.10;;
10191;SDS011;17580;50.850;4.504;2022-12-07T05:31:32;7.17;;;5.40;;
10191;SDS011;17580;50.850;4.504;2022-12-07T05:33:59;7.97;;;5.90;;
10191;SDS011;17580;50.850;4.504;2022-12-07T05:36:26;8.00;;;6.80;;
10191;SDS011;17580;50.850;4.504;2022-12-07T05:38:56;6.37;;;5.77;;
10191;SDS011;17580;50.850;4.504;2022-12-07T05:41:23;7.13;;;6.03;;
10191;SDS011;17580;50.850;4.504;2022-12-07T05:44:09;6.13;;;5.50;;
10191;SDS011;17580;50.850;4.504;2022-12-07T05:46:36;7.93;;;6.47;;
10191;SDS011;17580;50.850;4.504;2022-12-07T05:49:03;7.97;;;5.53;;
10191;SDS011;17580;50.850;4.504;2022-12-07T05:51:30;6.13;;;5.53;;
10191;SDS011;17580;50.850;4.504;2022-12-07T05:53:57;9.90;;;6.37;;
10191;SDS011;17580;50.850;4.504;2022-12-07T05:56:24;5.90;;;5.17;;
10191;SDS011;17580;50.850;4.504;2022-12-07T05:58:51;8.30;;;5.67;;
10191;SDS011;17580;50.850;4.504;2022-12-07T06:01:37;6.50;;;5.80;;
10191;SDS011;17580;50.850;4.504;2022-12-07T06:04:05;6.40;;;5.80;;
10191;SDS011;17580;50.850;4.504;2022-12-07T06:06:32;6.75;;;6.05;;
10191;SDS011;17580;50.850;4.504;2022-12-07T06:08:59;6.20;;;5.60;;
10191;SDS011;17580;50.850;4.504;2022-12-07T06:11:26;7.33;;;5.20;;
10191;SDS011;17580;50.850;4.504;2022-12-07T06:14:10;6.53;;;5.37;;
10191;SDS011;17580;50.850;4.504;2022-12-07T06:16:39;5.50;;;5.00;;
10191;SDS011;17580;50.850;4.504;2022-12-07T06:19:06;5.27;;;4.80;;
10191;SDS011;17580;50.850;4.504;2022-12-07T06:21:33;5.87;;;5.17;;
10191;SDS011;17580;50.850;4.504;2022-12-07T06:24:00;6.93;;;5.67;;
10191;SDS011;17580;50.850;4.504;2022-12-07T06:26:27;6.13;;;5.53;;
10191;SDS011;17580;50.850;4.504;2022-12-07T06:28:54;5.97;;;5.07;;
10191;SDS011;17580;50.850;4.504;2022-12-07T06:31:21;6.33;;;5.73;;
10191;SDS011;17580;50.850;4.504;2022-12-07T06:33:49;6.37;;;4.77;;
10191;SDS011;17580;50.850;4.504;2022-12-07T06:36:16;7.13;;;6.20;;
10191;SDS011;17580;50.850;4.504;2022-12-07T06:38:43;6.33;;;5.00;;
10191;SDS011;17580;50.850;4.504;2022-12-07T06:41:10;6.40;;;5.80;;
10191;SDS011;17580;50.850;4.504;2022-12-07T06:43:37;5.40;;;4.90;;
10191;SDS011;17580;50.850;4.504;2022-12-07T06:46:04;7.53;;;6.00;;
10191;SDS011;17580;50.850;4.504;2022-12-07T06:48:31;6.27;;;4.50;;
10191;SDS011;17580;50.850;4.504;2022-12-07T06:51:00;8.13;;;5.47;;
10191;SDS011;17580;50.850;4.504;2022-12-07T06:53:27;6.83;;;5.70;;
10191;SDS011;17580;50.850;4.504;2022-12-07T06:55:54;5.00;;;4.50;;
10191;SDS011;17580;50.850;4.504;2022-12-07T06:58:21;8.90;;;6.03;;
10191;SDS011;17580;50.850;4.504;2022-12-07T07:00:48;6.03;;;4.90;;
10191;SDS011;17580;50.850;4.504;2022-12-07T07:03:15;5.37;;;4.97;;
10191;SDS011;17580;50.850;4.504;2022-12-07T07:05:42;6.27;;;5.57;;
10191;SDS011;17580;50.850;4.504;2022-12-07T07:08:11;9.07;;;4.83;;
10191;SDS011;17580;50.850;4.504;2022-12-07T07:10:39;6.03;;;5.10;;
10191;SDS011;17580;50.850;4.504;2022-12-07T07:13:06;5.60;;;5.10;;
10191;SDS011;17580;50.850;4.504;2022-12-07T07:15:33;6.00;;;4.73;;
10191;SDS011;17580;50.850;4.504;2022-12-07T07:18:01;7.53;;;5.17;;
10191;SDS011;17580;50.850;4.504;2022-12-07T07:20:28;6.00;;;4.77;;
10191;SDS011;17580;50.850;4.504;2022-12-07T07:22:55;6.63;;;4.97;;
10191;SDS011;17580;50.850;4.504;2022-12-07T07:25:24;6.63;;;4.93;;
10191;SDS011;17580;50.850;4.504;2022-12-07T07:27:51;4.80;;;4.30;;
10191;SDS011;17580;50.850;4.504;2022-12-07T07:30:17;6.90;;;4.40;;
10191;SDS011;17580;50.850;4.504;2022-12-07T07:32:45;3.97;;;3.77;;
10191;SDS011;17580;50.850;4.504;2022-12-07T07:35:12;5.87;;;5.00;;
10191;SDS011;17580;50.850;4.504;2022-12-07T07:37:39;4.70;;;4.20;;
10191;SDS011;17580;50.850;4.504;2022-12-07T07:40:07;4.90;;;3.83;;
10191;SDS011;17580;50.850;4.504;2022-12-07T07:42:36;5.40;;;4.30;;
10191;SDS011;17580;50.850;4.504;2022-12-07T07:45:03;4.20;;;3.80;;
10191;SDS011;17580;50.850;4.504;2022-12-07T07:47:31;4.47;;;4.07;;
10191;SDS011;17580;50.850;4.504;2022-12-07T07:49:58;6.47;;;4.87;;
10191;SDS011;17580;50.850;4.504;2022-12-07T07:52:25;8.27;;;5.30;;
10191;SDS011;17580;50.850;4.504;2022-12-07T07:54:52;10.47;;;6.10;;
10191;SDS011;17580;50.850;4.504;2022-12-07T07:57:19;6.93;;;5.17;;
10191;SDS011;17580;50.850;4.504;2022-12-07T07:59:47;11.23;;;6.87;;
10191;SDS011;17580;50.850;4.504;2022-12-07T08:02:15;7.20;;;5.67;;
10191;SDS011;17580;50.850;4.504;2022-12-07T08:04:43;5.87;;;4.67;;
10191;SDS011;17580;50.850;4.504;2022-12-07T08:07:10;5.77;;;5.20;;
10191;SDS011;17580;50.850;4.504;2022-12-07T08:09:38;5.97;;;5.17;;
10191;SDS011;17580;50.850;4.504;2022-12-07T08:12:05;6.17;;;5.50;;
10191;SDS011;17580;50.850;4.504;2022-12-07T08:14:33;8.80;;;5.03;;
10191;SDS011;17580;50.850;4.504;2022-12-07T08:17:02;8.33;;;5.37;;
10191;SDS011;17580;50.850;4.504;2022-12-07T08:19:29;7.07;;;5.77;;
10191;SDS011;17580;50.850;4.504;2022-12-07T08:21:56;6.10;;;5.50;;
10191;SDS011;17580;50.850;4.504;2022-12-07T08:24:23;7.37;;;5.63;;
10191;SDS011;17580;50.850;4.504;2022-12-07T08:26:51;6.00;;;5.40;;
10191;SDS011;17580;50.850;4.504;2022-12-07T08:29:18;6.13;;;5.53;;
10191;SDS011;17580;50.850;4.504;2022-12-07T08:31:45;7.87;;;5.60;;
10191;SDS011;17580;50.850;4.504;2022-12-07T08:34:14;5.67;;;5.17;;
10191;SDS011;17580;50.850;4.504;2022-12-07T08:36:41;9.23;;;5.63;;
10191;SDS011;17580;50.850;4.504;2022-12-07T08:39:08;10.97;;;5.80;;
10191;SDS011;17580;50.850;4.504;2022-12-07T08:41:35;6.03;;;5.50;;
10191;SDS011;17580;50.850;4.504;2022-12-07T08:44:02;8.07;;;4.70;;
10191;SDS011;17580;50.850;4.504;2022-12-07T08:46:30;6.10;;;5.20;;
10191;SDS011;17580;50.850;4.504;2022-12-07T08:49:03;5.50;;;5.00;;
10191;SDS011;17580;50.850;4.504;2022-12-07T08:51:34;7.50;;;6.30;;
10191;SDS011;17580;50.850;4.504;2022-12-07T08:54:03;7.10;;;5.33;;
10191;SDS011;17580;50.850;4.504;2022-12-07T08:56:33;9.90;;;6.20;;
10191;SDS011;17580;50.850;4.504;2022-12-07T08:59:01;8.33;;;6.30;;
10191;SDS011;17580;50.850;4.504;2022-12-07T09:01:29;10.87;;;5.73;;
10191;SDS011;17580;50.850;4.504;2022-12-07T09:03:56;7.57;;;5.77;;
10191;SDS011;17580;50.850;4.504;2022-12-07T09:06:23;7.47;;;6.63;;
10191;SDS011;17580;50.850;4.504;2022-12-07T09:08:52;6.90;;;6.20;;
10191;SDS011;17580;50.850;4.504;2022-12-07T09:11:22;6.30;;;5.70;;
10191;SDS011;17580;50.850;4.504;2022-12-07T09:13:49;7.60;;;6.10;;
10191;SDS011;17580;50.850;4.504;2022-12-07T09:16:16;7.00;;;5.73;;
10191;SDS011;17580;50.850;4.504;2022-12-07T09:18:43;8.40;;;5.70;;
10191;SDS011;17580;50.850;4.504;2022-12-07T09:21:10;5.93;;;5.10;;
10191;SDS011;17580;50.850;4.504;2022-12-07T09:23:37;5.73;;;5.13;;
10191;SDS011;17580;50.850;4.504;2022-12-07T09:26:05;5.77;;;4.10;;
10191;SDS011;17580;50.850;4.504;2022-12-07T09:28:32;7.23;;;4.67;;
10191;SDS011;17580;50.850;4.504;2022-12-07T09:30:59;6.87;;;4.70;;
10191;SDS011;17580;50.850;4.504;2022-12-07T09:33:26;6.63;;;4.27;;
10191;SDS011;17580;50.850;4.504;2022-12-07T09:35:53;5.47;;;4.10;;
10191;SDS011;17580;50.850;4.504;2022-12-07T09:38:20;4.50;;;3.83;;
10191;SDS011;17580;50.850;4.504;2022-12-07T09:40:49;4.83;;;4.40;;
10191;SDS011;17580;50.850;4.504;2022-12-07T09:43:18;4.17;;;3.73;;
10191;SDS011;17580;50.850;4.504;2022-12-07T09:45:47;6.77;;;4.50;;
10191;SDS011;17580;50.850;4.504;2022-12-07T09:48:16;6.97;;;4.47;;
10191;SDS011;17580;50.850;4.504;2022-12-07T09:50:45;5.50;;;4.33;;
10191;SDS011;17580;50.850;4.504;2022-12-07T09:53:14;5.53;;;4.10;;
10191;SDS011;17580;50.850;4.504;2022-12-07T09:55:46;4.33;;;3.77;;
10191;SDS011;17580;50.850;4.504;2022-12-07T09:58:16;5.10;;;4.10;;
10191;SDS011;17580;50.850;4.504;2022-12-07T10:00:50;7.70;;;3.90;;
10191;SDS011;17580;50.850;4.504;2022-12-07T10:03:19;4.43;;;4.03;;
10191;SDS011;17580;50.850;4.504;2022-12-07T10:05:47;6.07;;;4.40;;
10191;SDS011;17580;50.850;4.504;2022-12-07T10:08:17;6.27;;;4.20;;
10191;SDS011;17580;50.850;4.504;2022-12-07T10:10:45;6.63;;;4.37;;
10191;SDS011;17580;50.850;4.504;2022-12-07T10:13:15;6.53;;;5.23;;
10191;SDS011;17580;50.850;4.504;2022-12-07T10:15:49;8.50;;;5.07;;
10191;SDS011;17580;50.850;4.504;2022-12-07T10:21:10;8.97;;;4.20;;
10191;SDS011;17580;50.850;4.504;2022-12-07T10:23:40;9.97;;;5.33;;
10191;SDS011;17580;50.850;4.504;2022-12-07T10:26:25;9.13;;;4.60;;
10191;SDS011;17580;50.850;4.504;2022-12-07T10:28:55;6.43;;;4.83;;
10191;SDS011;17580;50.850;4.504;2022-12-07T10:31:26;7.67;;;5.67;;
10191;SDS011;17580;50.850;4.504;2022-12-07T10:33:55;5.00;;;4.07;;
10191;SDS011;17580;50.850;4.504;2022-12-07T10:36:24;6.90;;;5.10;;
10191;SDS011;17580;50.850;4.504;2022-12-07T10:38:53;6.70;;;5.17;;
10191;SDS011;17580;50.850;4.504;2022-12-07T10:41:25;6.97;;;4.70;;
10191;SDS011;17580;50.850;4.504;2022-12-07T10:43:53;5.10;;;4.70;;
10191;SDS011;17580;50.850;4.504;2022-12-07T10:52:35;5.07;;;4.43;;
10191;SDS011;17580;50.850;4.504;2022-12-07T10:55:18;6.60;;;3.73;;
10191;SDS011;17580;50.850;4.504;2022-12-07T10:57:52;7.27;;;4.13;;
10191;SDS011;17580;50.850;4.504;2022-12-07T11:00:31;4.37;;;3.20;;
10191;SDS011;17580;50.850;4.504;2022-12-07T11:05:53;6.27;;;3.83;;
10191;SDS011;17580;50.850;4.504;2022-12-07T11:08:33;6.33;;;3.90;;
10191;SDS011;17580;50.850;4.504;2022-12-07T11:11:13;6.37;;;4.10;;
10191;SDS011;17580;50.850;4.504;2022-12-07T11:13:47;5.40;;;3.33;;
10191;SDS011;17580;50.850;4.504;2022-12-07T11:16:21;3.60;;;3.10;;
10191;SDS011;17580;50.850;4.504;2022-12-07T11:19:03;5.00;;;3.70;;
10191;SDS011;17580;50.850;4.504;2022-12-07T11:21:39;5.97;;;3.23;;
10191;SDS011;17580;50.850;4.504;2022-12-07T11:24:14;3.93;;;3.47;;
10191;SDS011;17580;50.850;4.504;2022-12-07T11:26:50;4.77;;;3.30;;
10191;SDS011;17580;50.850;4.504;2022-12-07T11:29:32;5.27;;;3.10;;
10191;SDS011;17580;50.850;4.504;2022-12-07T11:32:27;6.00;;;3.73;;
10191;SDS011;17580;50.850;4.504;2022-12-07T11:35:16;3.97;;;3.60;;
10191;SDS011;17580;50.850;4.504;2022-12-07T11:37:56;5.27;;;3.77;;
10191;SDS011;17580;50.850;4.504;2022-12-07T11:40:27;4.97;;;3.70;;
10191;SDS011;17580;50.850;4.504;2022-12-07T11:42:59;5.43;;;3.80;;
10191;SDS011;17580;50.850;4.504;2022-12-07T11:45:32;5.00;;;3.40;;
10191;SDS011;17580;50.850;4.504;2022-12-07T11:48:01;4.33;;;3.80;;
10191;SDS011;17580;50.850;4.504;2022-12-07T11:50:32;5.87;;;3.17;;
10191;SDS011;17580;50.850;4.504;2022-12-07T11:53:05;4.47;;;3.30;;
10191;SDS011;17580;50.850;4.504;2022-12-07T11:55:41;6.53;;;3.23;;
10191;SDS011;17580;50.850;4.504;2022-12-07T11:58:15;5.30;;;3.47;;
10191;SDS011;17580;50.850;4.504;2022-12-07T12:00:48;3.73;;;2.90;;
10191;SDS011;17580;50.850;4.504;2022-12-07T12:03:20;6.37;;;3.73;;
10191;SDS011;17580;50.850;4.504;2022-12-07T12:05:55;5.30;;;3.43;;
10191;SDS011;17580;50.850;4.504;2022-12-07T12:08:25;3.20;;;2.60;;
10191;SDS011;17580;50.850;4.504;2022-12-07T12:10:56;3.53;;;3.13;;
10191;SDS011;17580;50.850;4.504;2022-12-07T12:13:35;4.67;;;3.10;;
10191;SDS011;17580;50.850;4.504;2022-12-07T12:16:28;7.00;;;3.10;;
10191;SDS011;17580;50.850;4.504;2022-12-07T12:19:19;4.60;;;2.30;;
10191;SDS011;17580;50.850;4.504;2022-12-07T12:21:56;4.93;;;2.53;;
10191;SDS011;17580;50.850;4.504;2022-12-07T12:24:28;5.60;;;2.60;;
10191;SDS011;17580;50.850;4.504;2022-12-07T12:27:02;3.40;;;2.77;;
10191;SDS011;17580;50.850;4.504;2022-12-07T12:29:31;6.17;;;3.00;;
10191;SDS011;17580;50.850;4.504;2022-12-07T12:32:04;8.67;;;2.47;;
10191;SDS011;17580;50.850;4.504;2022-12-07T12:34:57;4.00;;;2.57;;
10191;SDS011;17580;50.850;4.504;2022-12-07T12:37:39;5.83;;;2.43;;
10191;SDS011;17580;50.850;4.504;2022-12-07T12:46:35;4.03;;;2.13;;
10191;SDS011;17580;50.850;4.504;2022-12-07T12:55:15;3.53;;;2.80;;
10191;SDS011;17580;50.850;4.504;2022-12-07T12:57:48;5.80;;;2.47;;
10191;SDS011;17580;50.850;4.504;2022-12-07T13:03:54;4.83;;;2.60;;
10191;SDS011;17580;50.850;4.504;2022-12-07T13:06:31;2.70;;;2.00;;
10191;SDS011;17580;50.850;4.504;2022-12-07T13:09:00;4.80;;;2.43;;
10191;SDS011;17580;50.850;4.504;2022-12-07T13:11:29;4.93;;;1.90;;
10191;SDS011;17580;50.850;4.504;2022-12-07T13:17:00;1.97;;;1.80;;
10191;SDS011;17580;50.850;4.504;2022-12-07T13:22:40;3.13;;;1.80;;
10191;SDS011;17580;50.850;4.504;2022-12-07T13:25:19;5.50;;;2.17;;
10191;SDS011;17580;50.850;4.504;2022-12-07T13:28:07;2.47;;;1.60;;
10191;SDS011;17580;50.850;4.504;2022-12-07T13:30:43;2.47;;;1.87;;
10191;SDS011;17580;50.850;4.504;2022-12-07T13:33:15;2.17;;;1.90;;
10191;SDS011;17580;50.850;4.504;2022-12-07T13:35:44;4.53;;;2.30;;
10191;SDS011;17580;50.850;4.504;2022-12-07T13:38:16;3.83;;;2.27;;
10191;SDS011;17580;50.850;4.504;2022-12-07T13:41:02;5.23;;;2.43;;
10191;SDS011;17580;50.850;4.504;2022-12-07T13:43:42;6.47;;;2.60;;
10191;SDS011;17580;50.850;4.504;2022-12-07T13:46:11;2.13;;;2.00;;
10191;SDS011;17580;50.850;4.504;2022-12-07T13:48:44;3.60;;;2.50;;
10191;SDS011;17580;50.850;4.504;2022-12-07T13:51:17;2.00;;;1.90;;
10191;SDS011;17580;50.850;4.504;2022-12-07T13:53:46;3.83;;;2.50;;
10191;SDS011;17580;50.850;4.504;2022-12-07T13:56:14;2.53;;;2.30;;
10191;SDS011;17580;50.850;4.504;2022-12-07T13:58:42;6.03;;;2.60;;
10191;SDS011;17580;50.850;4.504;2022-12-07T14:01:09;3.07;;;2.00;;
10191;SDS011;17580;50.850;4.504;2022-12-07T14:03:38;4.40;;;2.17;;
10191;SDS011;17580;50.850;4.504;2022-12-07T14:09:08;5.00;;;1.93;;
10191;SDS011;17580;50.850;4.504;2022-12-07T14:11:42;2.73;;;2.00;;
10191;SDS011;17580;50.850;4.504;2022-12-07T14:14:10;3.77;;;2.20;;
10191;SDS011;17580;50.850;4.504;2022-12-07T14:16:43;3.33;;;2.30;;
10191;SDS011;17580;50.850;4.504;2022-12-07T14:22:21;4.27;;;2.00;;
10191;SDS011;17580;50.850;4.504;2022-12-07T14:24:51;3.87;;;1.93;;
10191;SDS011;17580;50.850;4.504;2022-12-07T14:27:30;1.93;;;1.70;;
10191;SDS011;17580;50.850;4.504;2022-12-07T14:29:59;4.23;;;2.00;;
10191;SDS011;17580;50.850;4.504;2022-12-07T14:32:28;2.90;;;2.63;;
10191;SDS011;17580;50.850;4.504;2022-12-07T14:34:59;4.57;;;2.80;;
10191;SDS011;17580;50.850;4.504;2022-12-07T14:37:29;4.83;;;3.90;;
10191;SDS011;17580;50.850;4.504;2022-12-07T14:39:56;2.60;;;1.93;;
10191;SDS011;17580;50.850;4.504;2022-12-07T14:42:24;1.87;;;1.57;;
10191;SDS011;17580;50.850;4.504;2022-12-07T14:44:53;3.97;;;3.10;;
10191;SDS011;17580;50.850;4.504;2022-12-07T14:47:20;2.20;;;2.00;;
10191;SDS011;17580;50.850;4.504;2022-12-07T14:49:48;1.90;;;1.80;;
10191;SDS011;17580;50.850;4.504;2022-12-07T14:52:15;3.17;;;2.80;;
10191;SDS011;17580;50.850;4.504;2022-12-07T14:54:46;2.30;;;2.10;;
10191;SDS011;17580;50.850;4.504;2022-12-07T14:57:13;1.90;;;1.80;;
10191;SDS011;17580;50.850;4.504;2022-12-07T14:59:40;2.23;;;2.13;;
10191;SDS011;17580;50.850;4.504;2022-12-07T15:02:09;2.60;;;2.40;;
10191;SDS011;17580;50.850;4.504;2022-12-07T15:04:37;2.90;;;2.70;;
10191;SDS011;17580;50.850;4.504;2022-12-07T15:07:05;3.40;;;3.10;;
10191;SDS011;17580;50.850;4.504;2022-12-07T15:09:39;3.30;;;3.07;;
10191;SDS011;17580;50.850;4.504;2022-12-07T15:12:07;3.70;;;3.27;;
10191;SDS011;17580;50.850;4.504;2022-12-07T15:14:34;5.40;;;4.87;;
10191;SDS011;17580;50.850;4.504;2022-12-07T15:17:01;5.63;;;3.00;;
10191;SDS011;17580;50.850;4.504;2022-12-07T15:19:29;2.83;;;2.53;;
10191;SDS011;17580;50.850;4.504;2022-12-07T15:21:56;4.60;;;2.60;;
10191;SDS011;17580;50.850;4.504;2022-12-07T15:24:25;2.53;;;2.33;;
10191;SDS011;17580;50.850;4.504;2022-12-07T15:26:52;3.57;;;2.40;;
10191;SDS011;17580;50.850;4.504;2022-12-07T15:29:21;3.60;;;2.30;;
10191;SDS011;17580;50.850;4.504;2022-12-07T15:31:48;2.17;;;1.97;;
10191;SDS011;17580;50.850;4.504;2022-12-07T15:34:15;3.57;;;2.17;;
10191;SDS011;17580;50.850;4.504;2022-12-07T15:36:42;3.17;;;2.93;;
10191;SDS011;17580;50.850;4.504;2022-12-07T15:39:09;3.53;;;2.83;;
10191;SDS011;17580;50.850;4.504;2022-12-07T15:41:36;6.07;;;3.70;;
10191;SDS011;17580;50.850;4.504;2022-12-07T15:44:04;4.43;;;2.60;;
10191;SDS011;17580;50.850;4.504;2022-12-07T15:46:49;3.23;;;2.10;;
10191;SDS011;17580;50.850;4.504;2022-12-07T15:49:17;4.20;;;2.30;;
10191;SDS011;17580;50.850;4.504;2022-12-07T15:51:45;2.07;;;1.63;;